createdAt,value
2022-09-06T00:00:53.805Z,4.95
2022-09-06T00:11:01.408Z,5.82
2022-09-06T00:21:08.236Z,7.2
2022-09-06T00:31:16.269Z,6.65
2022-09-06T00:41:25.209Z,4.92
2022-09-06T00:51:33.309Z,5.57
2022-09-06T01:01:41.223Z,6.68
2022-09-06T01:11:49.105Z,7.06
2022-09-06T01:21:56.992Z,7.89
2022-09-06T01:32:04.982Z,7.23
2022-09-06T01:42:13.034Z,7.74
2022-09-06T01:52:20.943Z,7.9
2022-09-06T02:02:28.987Z,8.28
2022-09-06T02:12:36.857Z,8.17
2022-09-06T02:22:44.952Z,7.94
2022-09-06T02:32:52.978Z,7.14
2022-09-06T02:43:01.002Z,7.35
2022-09-06T02:53:09.088Z,7.84
2022-09-06T03:03:17.077Z,6.93
2022-09-06T03:13:25.094Z,6.07
2022-09-06T03:23:33.093Z,6.77
2022-09-06T03:33:41.088Z,6.36
2022-09-06T03:43:49.032Z,6.4
2022-09-06T03:53:57.068Z,5.34
2022-09-06T04:04:05.041Z,6.07
2022-09-06T04:14:12.980Z,5.96
2022-09-06T04:24:20.965Z,6.66
2022-09-06T04:34:28.936Z,7.52
2022-09-06T04:44:37.067Z,10.31
2022-09-06T04:54:45.272Z,8.85
2022-09-06T05:04:53.547Z,11.62
2022-09-06T05:15:02.657Z,8.1
2022-09-06T05:25:10.792Z,7.45
2022-09-06T05:35:20.349Z,9.2
2022-09-06T05:45:28.398Z,8.11
2022-09-06T05:55:38.253Z,8.49
2022-09-06T06:05:43.989Z,7.63
2022-09-06T06:15:51.968Z,6.77
2022-09-06T06:26:02.135Z,8.59
2022-09-06T06:36:01.227Z,8.81
2022-09-06T06:46:09.384Z,6.94
2022-09-06T06:56:17.430Z,6.63
2022-09-06T07:16:33.260Z,7.62
2022-09-06T07:26:42.448Z,7.65
2022-09-06T07:36:50.494Z,7.85
2022-09-06T07:57:02.143Z,5.87
2022-09-06T08:07:38.903Z,5.67
2022-09-06T08:17:16.744Z,5.25
2022-09-06T08:27:24.895Z,5.15
2022-09-06T08:37:32.027Z,5.97
2022-09-06T08:47:39.938Z,5.31
2022-09-06T08:57:47.013Z,6.09
2022-09-06T09:07:55.020Z,5.86
2022-09-06T09:18:03.101Z,5.72
2022-09-06T09:28:11.266Z,5.36
2022-09-06T09:38:18.446Z,5.5
2022-09-06T09:48:26.437Z,6.32
2022-09-06T09:58:34.447Z,6.3
2022-09-06T10:08:42.694Z,5.4
2022-09-06T10:18:50.779Z,6.08
2022-09-06T10:28:58.790Z,5.36
2022-09-06T10:39:05.824Z,4.76
2022-09-06T10:49:14.921Z,5.37
2022-09-06T10:59:37.941Z,4.45
2022-09-06T11:09:29.618Z,3.4
2022-09-06T11:19:37.636Z,3.61
2022-09-06T11:29:45.819Z,3.55
2022-09-06T11:50:02.883Z,3.63
2022-09-06T12:00:11.045Z,3.63
2022-09-06T12:10:20.606Z,3.65
2022-09-06T12:20:32.008Z,3.46
2022-09-06T12:30:29.980Z,3.6
2022-09-06T12:40:37.962Z,3.48
2022-09-06T12:50:47.142Z,3.19
2022-09-06T13:00:55.481Z,3.31
2022-09-06T13:11:06.081Z,3.43
2022-09-06T13:21:14.658Z,3.44
2022-09-06T13:31:26.958Z,3.03
2022-09-06T13:41:27.657Z,3.14
2022-09-06T13:51:17.573Z,3.08
2022-09-06T14:01:15.866Z,2.68
2022-09-06T14:11:27.846Z,2.84
2022-09-06T14:21:26.152Z,2.62
2022-09-06T14:31:35.428Z,2.93
2022-09-06T14:41:43.595Z,2.98
2022-09-06T14:51:53.671Z,3.04
2022-09-06T15:01:54.305Z,3.11
2022-09-06T15:11:53.542Z,2.85
2022-09-06T15:22:05.357Z,3.24
2022-09-06T15:32:03.487Z,3.13
2022-09-06T15:42:11.505Z,3.17
2022-09-06T15:52:19.544Z,2.69
2022-09-06T16:02:27.716Z,2.82
2022-09-06T16:12:35.673Z,2.84
2022-09-06T16:22:43.721Z,2.82
2022-09-06T16:32:51.797Z,2.92
2022-09-06T16:42:59.850Z,2.7
2022-09-06T16:53:08.856Z,2.72
2022-09-06T17:03:16.983Z,2.84
2022-09-06T17:13:25.023Z,3.47
2022-09-06T17:23:33.045Z,2.61
2022-09-06T17:33:41.077Z,2.55
2022-09-06T17:43:49.089Z,2.53
2022-09-06T17:53:57.366Z,2.37
2022-09-06T18:04:05.567Z,2.83
2022-09-06T18:14:13.750Z,2.49
2022-09-06T18:24:21.764Z,2.66
2022-09-06T18:34:29.939Z,2.14
2022-09-06T18:44:36.949Z,2.91
2022-09-06T18:54:44.937Z,3.28
2022-09-06T19:04:58.217Z,2.52
2022-09-06T19:14:56.314Z,3.07
2022-09-06T19:25:04.360Z,5.15
2022-09-06T19:35:12.662Z,3.83
2022-09-06T19:45:20.660Z,3.29
2022-09-06T20:35:38.267Z,3.83
2022-09-06T20:45:47.166Z,3.67
2022-09-06T20:55:55.257Z,3.55
2022-09-06T21:06:05.746Z,3.71
2022-09-06T21:16:04.037Z,3.44
2022-09-06T21:26:42.096Z,3.2
2022-09-06T21:46:22.429Z,3.12
2022-09-06T21:56:30.453Z,3.3
2022-09-06T22:06:38.522Z,3.64
2022-09-06T22:16:46.752Z,3.94
2022-09-06T22:26:54.708Z,4.98
2022-09-06T22:37:03.826Z,5.58
2022-09-06T22:47:11.896Z,3.39
2022-09-06T22:57:19.971Z,2.87
2022-09-06T23:07:28.025Z,2.77
2022-09-06T23:17:36.024Z,3.45
2022-09-06T23:27:44.002Z,4.22
2022-09-06T23:37:52.004Z,3.55
2022-09-06T23:48:00.111Z,3.8
2022-09-06T23:58:08.180Z,4.28
